sensor_id;sensor_type;location;lat;lon;timestamp;P1;durP1;ratioP1;P2;durP2;ratioP2
35558;SDS011;21661;50.794;-1.066;2023-10-19T00:00:33;0.20;;;0.10;;
35558;SDS011;21661;50.794;-1.066;2023-10-19T00:03:01;0.20;;;0.00;;
35558;SDS011;21661;50.794;-1.066;2023-10-19T00:05:31;0.10;;;0.00;;
35558;SDS011;21661;50.794;-1.066;2023-10-19T00:08:01;0.20;;;0.00;;
35558;SDS011;21661;50.794;-1.066;2023-10-19T00:10:42;0.10;;;0.00;;
35558;SDS011;21661;50.794;-1.066;2023-10-19T00:13:09;0.15;;;0.00;;
35558;SDS011;21661;50.794;-1.066;2023-10-19T00:15:37;0.20;;;0.10;;
35558;SDS011;21661;50.794;-1.066;2023-10-19T00:18:13;0.20;;;0.00;;
35558;SDS011;21661;50.794;-1.066;2023-10-19T00:20:50;0.10;;;0.00;;
35558;SDS011;21661;50.794;-1.066;2023-10-19T00:23:18;0.28;;;0.10;;
35558;SDS011;21661;50.794;-1.066;2023-10-19T00:25:53;0.30;;;0.10;;
35558;SDS011;21661;50.794;-1.066;2023-10-19T00:28:23;0.28;;;0.10;;
35558;SDS011;21661;50.794;-1.066;2023-10-19T00:30:51;0.30;;;0.10;;
35558;SDS011;21661;50.794;-1.066;2023-10-19T00:33:18;0.20;;;0.10;;
35558;SDS011;21661;50.794;-1.066;2023-10-19T00:35:46;0.22;;;0.10;;
35558;SDS011;21661;50.794;-1.066;2023-10-19T00:38:30;0.45;;;0.10;;
35558;SDS011;21661;50.794;-1.066;2023-10-19T00:40:58;0.38;;;0.10;;
35558;SDS011;21661;50.794;-1.066;2023-10-19T00:43:29;0.38;;;0.10;;
35558;SDS011;21661;50.794;-1.066;2023-10-19T00:46:02;0.22;;;0.10;;
35558;SDS011;21661;50.794;-1.066;2023-10-19T00:48:39;0.40;;;0.10;;
35558;SDS011;21661;50.794;-1.066;2023-10-19T00:51:07;0.45;;;0.10;;
35558;SDS011;21661;50.794;-1.066;2023-10-19T00:53:37;0.40;;;0.10;;
35558;SDS011;21661;50.794;-1.066;2023-10-19T00:56:04;0.70;;;0.30;;
35558;SDS011;21661;50.794;-1.066;2023-10-19T00:58:34;0.40;;;0.20;;
35558;SDS011;21661;50.794;-1.066;2023-10-19T01:01:04;0.43;;;0.13;;
35558;SDS011;21661;50.794;-1.066;2023-10-19T01:03:34;0.57;;;0.22;;
35558;SDS011;21661;50.794;-1.066;2023-10-19T01:06:04;0.40;;;0.13;;
35558;SDS011;21661;50.794;-1.066;2023-10-19T01:08:37;0.30;;;0.10;;
35558;SDS011;21661;50.794;-1.066;2023-10-19T01:11:09;0.30;;;0.10;;
35558;SDS011;21661;50.794;-1.066;2023-10-19T01:13:39;0.77;;;0.20;;
35558;SDS011;21661;50.794;-1.066;2023-10-19T01:16:16;0.50;;;0.10;;
35558;SDS011;21661;50.794;-1.066;2023-10-19T01:18:46;0.65;;;0.20;;
35558;SDS011;21661;50.794;-1.066;2023-10-19T01:21:22;0.30;;;0.17;;
35558;SDS011;21661;50.794;-1.066;2023-10-19T01:23:50;0.30;;;0.10;;
35558;SDS011;21661;50.794;-1.066;2023-10-19T01:26:17;0.63;;;0.20;;
35558;SDS011;21661;50.794;-1.066;2023-10-19T01:28:52;0.68;;;0.20;;
35558;SDS011;21661;50.794;-1.066;2023-10-19T01:31:32;0.45;;;0.20;;
35558;SDS011;21661;50.794;-1.066;2023-10-19T01:34:03;0.68;;;0.20;;
35558;SDS011;21661;50.794;-1.066;2023-10-19T01:36:34;0.98;;;0.30;;
35558;SDS011;21661;50.794;-1.066;2023-10-19T01:39:07;1.00;;;0.40;;
35558;SDS011;21661;50.794;-1.066;2023-10-19T01:41:36;0.65;;;0.20;;
35558;SDS011;21661;50.794;-1.066;2023-10-19T01:44:03;1.00;;;0.30;;
35558;SDS011;21661;50.794;-1.066;2023-10-19T01:46:32;1.10;;;0.30;;
35558;SDS011;21661;50.794;-1.066;2023-10-19T01:49:00;0.88;;;0.30;;
35558;SDS011;21661;50.794;-1.066;2023-10-19T01:51:28;0.57;;;0.20;;
35558;SDS011;21661;50.794;-1.066;2023-10-19T01:53:56;0.93;;;0.30;;
35558;SDS011;21661;50.794;-1.066;2023-10-19T01:56:22;1.05;;;0.30;;
35558;SDS011;21661;50.794;-1.066;2023-10-19T01:58:48;0.98;;;0.30;;
35558;SDS011;21661;50.794;-1.066;2023-10-19T02:01:16;0.80;;;0.30;;
35558;SDS011;21661;50.794;-1.066;2023-10-19T02:03:53;1.02;;;0.30;;
35558;SDS011;21661;50.794;-1.066;2023-10-19T02:06:22;0.82;;;0.22;;
35558;SDS011;21661;50.794;-1.066;2023-10-19T02:11:49;1.02;;;0.30;;
35558;SDS011;21661;50.794;-1.066;2023-10-19T02:14:18;1.05;;;0.30;;
35558;SDS011;21661;50.794;-1.066;2023-10-19T02:16:45;0.52;;;0.20;;
35558;SDS011;21661;50.794;-1.066;2023-10-19T02:19:12;1.08;;;0.40;;
35558;SDS011;21661;50.794;-1.066;2023-10-19T02:21:39;1.00;;;0.30;;
35558;SDS011;21661;50.794;-1.066;2023-10-19T02:24:08;0.82;;;0.30;;
35558;SDS011;21661;50.794;-1.066;2023-10-19T02:26:42;1.05;;;0.40;;
35558;SDS011;21661;50.794;-1.066;2023-10-19T02:29:08;0.95;;;0.40;;
35558;SDS011;21661;50.794;-1.066;2023-10-19T02:31:38;1.15;;;0.45;;
35558;SDS011;21661;50.794;-1.066;2023-10-19T02:34:05;0.90;;;0.30;;
35558;SDS011;21661;50.794;-1.066;2023-10-19T02:36:32;1.15;;;0.30;;
35558;SDS011;21661;50.794;-1.066;2023-10-19T02:38:59;0.90;;;0.40;;
35558;SDS011;21661;50.794;-1.066;2023-10-19T02:41:32;0.52;;;0.20;;
35558;SDS011;21661;50.794;-1.066;2023-10-19T02:44:00;0.90;;;0.30;;
35558;SDS011;21661;50.794;-1.066;2023-10-19T02:46:30;1.00;;;0.30;;
35558;SDS011;21661;50.794;-1.066;2023-10-19T02:49:02;0.82;;;0.30;;
35558;SDS011;21661;50.794;-1.066;2023-10-19T02:51:30;1.30;;;0.40;;
35558;SDS011;21661;50.794;-1.066;2023-10-19T02:53:56;1.25;;;0.40;;
35558;SDS011;21661;50.794;-1.066;2023-10-19T02:56:25;1.15;;;0.35;;
35558;SDS011;21661;50.794;-1.066;2023-10-19T02:58:52;1.25;;;0.45;;
35558;SDS011;21661;50.794;-1.066;2023-10-19T03:01:19;1.25;;;0.40;;
35558;SDS011;21661;50.794;-1.066;2023-10-19T03:03:53;1.00;;;0.40;;
35558;SDS011;21661;50.794;-1.066;2023-10-19T03:06:22;0.77;;;0.30;;
35558;SDS011;21661;50.794;-1.066;2023-10-19T03:08:49;0.95;;;0.32;;
35558;SDS011;21661;50.794;-1.066;2023-10-19T03:11:26;0.95;;;0.40;;
35558;SDS011;21661;50.794;-1.066;2023-10-19T03:13:52;1.50;;;0.50;;
35558;SDS011;21661;50.794;-1.066;2023-10-19T03:16:19;1.33;;;0.45;;
35558;SDS011;21661;50.794;-1.066;2023-10-19T03:18:46;1.35;;;0.50;;
35558;SDS011;21661;50.794;-1.066;2023-10-19T03:21:12;0.68;;;0.30;;
35558;SDS011;21661;50.794;-1.066;2023-10-19T03:23:38;0.90;;;0.32;;
35558;SDS011;21661;50.794;-1.066;2023-10-19T03:26:05;0.90;;;0.40;;
35558;SDS011;21661;50.794;-1.066;2023-10-19T03:28:50;0.82;;;0.32;;
35558;SDS011;21661;50.794;-1.066;2023-10-19T03:31:21;1.20;;;0.43;;
35558;SDS011;21661;50.794;-1.066;2023-10-19T03:33:50;1.77;;;0.70;;
35558;SDS011;21661;50.794;-1.066;2023-10-19T03:36:20;1.00;;;0.40;;
35558;SDS011;21661;50.794;-1.066;2023-10-19T03:38:46;1.33;;;0.40;;
35558;SDS011;21661;50.794;-1.066;2023-10-19T03:41:14;1.42;;;0.40;;
35558;SDS011;21661;50.794;-1.066;2023-10-19T03:43:40;1.17;;;0.40;;
35558;SDS011;21661;50.794;-1.066;2023-10-19T03:46:07;1.00;;;0.40;;
35558;SDS011;21661;50.794;-1.066;2023-10-19T03:48:53;0.98;;;0.40;;
35558;SDS011;21661;50.794;-1.066;2023-10-19T03:51:41;0.75;;;0.22;;
35558;SDS011;21661;50.794;-1.066;2023-10-19T03:54:22;1.20;;;0.30;;
35558;SDS011;21661;50.794;-1.066;2023-10-19T03:56:49;1.27;;;0.45;;
35558;SDS011;21661;50.794;-1.066;2023-10-19T03:59:16;1.40;;;0.50;;
35558;SDS011;21661;50.794;-1.066;2023-10-19T04:01:42;1.05;;;0.40;;
35558;SDS011;21661;50.794;-1.066;2023-10-19T04:04:08;1.17;;;0.40;;
35558;SDS011;21661;50.794;-1.066;2023-10-19T04:06:34;0.85;;;0.40;;
35558;SDS011;21661;50.794;-1.066;2023-10-19T04:09:02;1.20;;;0.32;;
35558;SDS011;21661;50.794;-1.066;2023-10-19T04:11:30;0.98;;;0.40;;
35558;SDS011;21661;50.794;-1.066;2023-10-19T04:14:13;0.98;;;0.32;;
35558;SDS011;21661;50.794;-1.066;2023-10-19T04:16:40;1.17;;;0.30;;
35558;SDS011;21661;50.794;-1.066;2023-10-19T04:19:08;1.13;;;0.30;;
35558;SDS011;21661;50.794;-1.066;2023-10-19T04:24:09;0.90;;;0.32;;
35558;SDS011;21661;50.794;-1.066;2023-10-19T04:26:35;1.00;;;0.40;;
35558;SDS011;21661;50.794;-1.066;2023-10-19T04:29:04;1.40;;;0.40;;
35558;SDS011;21661;50.794;-1.066;2023-10-19T04:31:39;0.80;;;0.30;;
35558;SDS011;21661;50.794;-1.066;2023-10-19T04:34:15;1.48;;;0.50;;
35558;SDS011;21661;50.794;-1.066;2023-10-19T04:36:46;2.10;;;0.77;;
35558;SDS011;21661;50.794;-1.066;2023-10-19T04:39:15;1.10;;;0.40;;
35558;SDS011;21661;50.794;-1.066;2023-10-19T04:41:44;1.17;;;0.47;;
35558;SDS011;21661;50.794;-1.066;2023-10-19T04:44:10;1.20;;;0.30;;
35558;SDS011;21661;50.794;-1.066;2023-10-19T04:46:36;1.00;;;0.32;;
35558;SDS011;21661;50.794;-1.066;2023-10-19T04:49:02;0.90;;;0.38;;
35558;SDS011;21661;50.794;-1.066;2023-10-19T04:51:29;1.67;;;0.50;;
35558;SDS011;21661;50.794;-1.066;2023-10-19T04:53:55;1.08;;;0.40;;
35558;SDS011;21661;50.794;-1.066;2023-10-19T04:56:20;0.60;;;0.30;;
35558;SDS011;21661;50.794;-1.066;2023-10-19T04:58:46;1.10;;;0.40;;
35558;SDS011;21661;50.794;-1.066;2023-10-19T05:01:13;1.10;;;0.32;;
35558;SDS011;21661;50.794;-1.066;2023-10-19T05:03:39;0.50;;;0.20;;
35558;SDS011;21661;50.794;-1.066;2023-10-19T05:06:06;0.98;;;0.35;;
35558;SDS011;21661;50.794;-1.066;2023-10-19T05:08:31;1.33;;;0.43;;
35558;SDS011;21661;50.794;-1.066;2023-10-19T05:10:58;1.02;;;0.30;;
35558;SDS011;21661;50.794;-1.066;2023-10-19T05:13:26;1.50;;;0.30;;
35558;SDS011;21661;50.794;-1.066;2023-10-19T05:15:53;1.27;;;0.20;;
35558;SDS011;21661;50.794;-1.066;2023-10-19T05:18:20;0.77;;;0.20;;
35558;SDS011;21661;50.794;-1.066;2023-10-19T05:20:46;0.98;;;0.30;;
35558;SDS011;21661;50.794;-1.066;2023-10-19T05:23:12;1.13;;;0.40;;
35558;SDS011;21661;50.794;-1.066;2023-10-19T05:25:38;1.27;;;0.40;;
35558;SDS011;21661;50.794;-1.066;2023-10-19T05:28:05;0.88;;;0.35;;
35558;SDS011;21661;50.794;-1.066;2023-10-19T05:30:31;1.15;;;0.30;;
35558;SDS011;21661;50.794;-1.066;2023-10-19T05:32:58;0.80;;;0.38;;
35558;SDS011;21661;50.794;-1.066;2023-10-19T05:35:25;1.13;;;0.40;;
35558;SDS011;21661;50.794;-1.066;2023-10-19T05:37:54;0.65;;;0.20;;
35558;SDS011;21661;50.794;-1.066;2023-10-19T05:40:24;1.33;;;0.30;;
35558;SDS011;21661;50.794;-1.066;2023-10-19T05:42:55;0.90;;;0.30;;
35558;SDS011;21661;50.794;-1.066;2023-10-19T05:45:22;0.88;;;0.32;;
35558;SDS011;21661;50.794;-1.066;2023-10-19T05:47:48;1.33;;;0.40;;
35558;SDS011;21661;50.794;-1.066;2023-10-19T05:50:14;1.00;;;0.30;;
35558;SDS011;21661;50.794;-1.066;2023-10-19T05:52:43;0.68;;;0.32;;
35558;SDS011;21661;50.794;-1.066;2023-10-19T05:55:09;1.15;;;0.47;;
35558;SDS011;21661;50.794;-1.066;2023-10-19T05:57:38;1.20;;;0.50;;
35558;SDS011;21661;50.794;-1.066;2023-10-19T06:00:08;0.95;;;0.40;;
35558;SDS011;21661;50.794;-1.066;2023-10-19T06:02:42;1.17;;;0.35;;
35558;SDS011;21661;50.794;-1.066;2023-10-19T06:07:35;1.25;;;0.30;;
35558;SDS011;21661;50.794;-1.066;2023-10-19T06:10:01;1.00;;;0.40;;
35558;SDS011;21661;50.794;-1.066;2023-10-19T06:12:32;1.20;;;0.30;;
35558;SDS011;21661;50.794;-1.066;2023-10-19T06:14:59;1.13;;;0.30;;
35558;SDS011;21661;50.794;-1.066;2023-10-19T06:17:26;0.93;;;0.32;;
35558;SDS011;21661;50.794;-1.066;2023-10-19T06:19:53;0.75;;;0.30;;
35558;SDS011;21661;50.794;-1.066;2023-10-19T06:22:19;1.25;;;0.40;;
35558;SDS011;21661;50.794;-1.066;2023-10-19T06:24:44;1.10;;;0.38;;
35558;SDS011;21661;50.794;-1.066;2023-10-19T06:27:10;1.98;;;0.75;;
35558;SDS011;21661;50.794;-1.066;2023-10-19T06:29:35;1.05;;;0.40;;
35558;SDS011;21661;50.794;-1.066;2023-10-19T06:32:01;0.82;;;0.30;;
35558;SDS011;21661;50.794;-1.066;2023-10-19T06:34:27;1.13;;;0.40;;
35558;SDS011;21661;50.794;-1.066;2023-10-19T06:36:53;0.90;;;0.30;;
35558;SDS011;21661;50.794;-1.066;2023-10-19T06:39:19;1.10;;;0.40;;
35558;SDS011;21661;50.794;-1.066;2023-10-19T06:41:46;1.00;;;0.40;;
35558;SDS011;21661;50.794;-1.066;2023-10-19T06:44:12;1.63;;;0.45;;
35558;SDS011;21661;50.794;-1.066;2023-10-19T06:46:38;1.08;;;0.32;;
35558;SDS011;21661;50.794;-1.066;2023-10-19T06:49:04;1.38;;;0.40;;
35558;SDS011;21661;50.794;-1.066;2023-10-19T06:51:30;1.10;;;0.40;;
35558;SDS011;21661;50.794;-1.066;2023-10-19T06:53:57;1.38;;;0.30;;
35558;SDS011;21661;50.794;-1.066;2023-10-19T06:56:23;1.52;;;0.57;;
35558;SDS011;21661;50.794;-1.066;2023-10-19T06:58:49;1.20;;;0.50;;
35558;SDS011;21661;50.794;-1.066;2023-10-19T07:01:14;1.52;;;0.50;;
35558;SDS011;21661;50.794;-1.066;2023-10-19T07:03:41;0.73;;;0.32;;
35558;SDS011;21661;50.794;-1.066;2023-10-19T07:06:07;1.27;;;0.30;;
35558;SDS011;21661;50.794;-1.066;2023-10-19T07:08:38;1.48;;;0.50;;
35558;SDS011;21661;50.794;-1.066;2023-10-19T07:11:06;1.77;;;0.50;;
35558;SDS011;21661;50.794;-1.066;2023-10-19T07:13:32;1.10;;;0.30;;
35558;SDS011;21661;50.794;-1.066;2023-10-19T07:15:59;0.93;;;0.38;;
35558;SDS011;21661;50.794;-1.066;2023-10-19T07:18:28;1.50;;;0.55;;
35558;SDS011;21661;50.794;-1.066;2023-10-19T07:20:54;1.35;;;0.43;;
35558;SDS011;21661;50.794;-1.066;2023-10-19T07:23:27;1.02;;;0.40;;
35558;SDS011;21661;50.794;-1.066;2023-10-19T07:25:53;0.88;;;0.30;;
35558;SDS011;21661;50.794;-1.066;2023-10-19T07:28:21;1.27;;;0.50;;
35558;SDS011;21661;50.794;-1.066;2023-10-19T07:30:51;1.13;;;0.30;;
35558;SDS011;21661;50.794;-1.066;2023-10-19T07:33:17;1.10;;;0.28;;
35558;SDS011;21661;50.794;-1.066;2023-10-19T07:35:49;1.20;;;0.40;;
35558;SDS011;21661;50.794;-1.066;2023-10-19T07:38:25;1.40;;;0.32;;
35558;SDS011;21661;50.794;-1.066;2023-10-19T07:40:53;1.40;;;0.40;;
35558;SDS011;21661;50.794;-1.066;2023-10-19T07:43:19;1.80;;;0.40;;
35558;SDS011;21661;50.794;-1.066;2023-10-19T07:45:45;1.02;;;0.30;;
35558;SDS011;21661;50.794;-1.066;2023-10-19T07:48:12;1.20;;;0.32;;
35558;SDS011;21661;50.794;-1.066;2023-10-19T07:50:39;1.33;;;0.40;;
35558;SDS011;21661;50.794;-1.066;2023-10-19T07:53:08;1.38;;;0.40;;
35558;SDS011;21661;50.794;-1.066;2023-10-19T07:55:37;0.90;;;0.20;;
35558;SDS011;21661;50.794;-1.066;2023-10-19T07:58:04;0.80;;;0.30;;
35558;SDS011;21661;50.794;-1.066;2023-10-19T08:00:30;1.65;;;0.45;;
35558;SDS011;21661;50.794;-1.066;2023-10-19T08:02:56;1.05;;;0.30;;
35558;SDS011;21661;50.794;-1.066;2023-10-19T08:05:21;1.42;;;0.40;;
35558;SDS011;21661;50.794;-1.066;2023-10-19T08:07:48;0.85;;;0.20;;
35558;SDS011;21661;50.794;-1.066;2023-10-19T08:10:14;0.80;;;0.40;;
35558;SDS011;21661;50.794;-1.066;2023-10-19T08:12:42;0.95;;;0.30;;
35558;SDS011;21661;50.794;-1.066;2023-10-19T08:15:10;1.13;;;0.40;;
35558;SDS011;21661;50.794;-1.066;2023-10-19T08:17:40;0.80;;;0.30;;
35558;SDS011;21661;50.794;-1.066;2023-10-19T08:20:07;1.08;;;0.25;;
35558;SDS011;21661;50.794;-1.066;2023-10-19T08:22:37;1.33;;;0.38;;
35558;SDS011;21661;50.794;-1.066;2023-10-19T08:25:03;1.58;;;0.30;;
35558;SDS011;21661;50.794;-1.066;2023-10-19T08:27:36;1.25;;;0.30;;
35558;SDS011;21661;50.794;-1.066;2023-10-19T08:30:05;1.30;;;0.40;;
35558;SDS011;21661;50.794;-1.066;2023-10-19T08:32:34;0.70;;;0.25;;
35558;SDS011;21661;50.794;-1.066;2023-10-19T08:35:01;1.15;;;0.22;;
35558;SDS011;21661;50.794;-1.066;2023-10-19T08:37:27;1.00;;;0.30;;
35558;SDS011;21661;50.794;-1.066;2023-10-19T08:39:53;1.15;;;0.40;;
35558;SDS011;21661;50.794;-1.066;2023-10-19T08:42:19;1.30;;;0.45;;
35558;SDS011;21661;50.794;-1.066;2023-10-19T08:44:45;1.48;;;0.40;;
35558;SDS011;21661;50.794;-1.066;2023-10-19T08:47:11;1.17;;;0.30;;
35558;SDS011;21661;50.794;-1.066;2023-10-19T08:49:37;1.27;;;0.30;;
35558;SDS011;21661;50.794;-1.066;2023-10-19T08:52:03;0.93;;;0.35;;
35558;SDS011;21661;50.794;-1.066;2023-10-19T08:54:30;1.02;;;0.30;;
35558;SDS011;21661;50.794;-1.066;2023-10-19T08:56:56;1.25;;;0.43;;
35558;SDS011;21661;50.794;-1.066;2023-10-19T08:59:24;1.73;;;0.50;;
35558;SDS011;21661;50.794;-1.066;2023-10-19T09:01:52;1.17;;;0.30;;
35558;SDS011;21661;50.794;-1.066;2023-10-19T09:04:27;0.82;;;0.30;;
35558;SDS011;21661;50.794;-1.066;2023-10-19T09:06:54;1.30;;;0.30;;
35558;SDS011;21661;50.794;-1.066;2023-10-19T09:09:22;1.02;;;0.30;;
35558;SDS011;21661;50.794;-1.066;2023-10-19T09:11:51;1.88;;;0.40;;
35558;SDS011;21661;50.794;-1.066;2023-10-19T09:17:15;1.48;;;0.43;;
35558;SDS011;21661;50.794;-1.066;2023-10-19T09:19:43;1.85;;;0.30;;
35558;SDS011;21661;50.794;-1.066;2023-10-19T09:22:12;1.45;;;0.50;;
35558;SDS011;21661;50.794;-1.066;2023-10-19T09:24:51;1.70;;;0.55;;
35558;SDS011;21661;50.794;-1.066;2023-10-19T09:27:19;1.60;;;0.40;;
35558;SDS011;21661;50.794;-1.066;2023-10-19T09:29:45;1.52;;;0.40;;
35558;SDS011;21661;50.794;-1.066;2023-10-19T09:32:12;1.88;;;0.50;;
35558;SDS011;21661;50.794;-1.066;2023-10-19T09:34:39;1.77;;;0.52;;
35558;SDS011;21661;50.794;-1.066;2023-10-19T09:37:08;1.67;;;0.52;;
35558;SDS011;21661;50.794;-1.066;2023-10-19T09:39:35;2.55;;;0.60;;
35558;SDS011;21661;50.794;-1.066;2023-10-19T09:42:08;1.90;;;0.40;;
35558;SDS011;21661;50.794;-1.066;2023-10-19T09:44:42;2.00;;;0.60;;
35558;SDS011;21661;50.794;-1.066;2023-10-19T09:47:11;2.10;;;0.52;;
35558;SDS011;21661;50.794;-1.066;2023-10-19T09:49:40;2.05;;;0.55;;
35558;SDS011;21661;50.794;-1.066;2023-10-19T09:52:07;2.45;;;0.40;;
35558;SDS011;21661;50.794;-1.066;2023-10-19T09:57:23;2.33;;;0.65;;
35558;SDS011;21661;50.794;-1.066;2023-10-19T10:00:17;1.85;;;0.60;;
35558;SDS011;21661;50.794;-1.066;2023-10-19T10:02:48;2.60;;;0.68;;
35558;SDS011;21661;50.794;-1.066;2023-10-19T10:15:53;1.70;;;0.47;;
35558;SDS011;21661;50.794;-1.066;2023-10-19T10:18:20;2.10;;;0.70;;
35558;SDS011;21661;50.794;-1.066;2023-10-19T10:20:45;1.98;;;0.50;;
35558;SDS011;21661;50.794;-1.066;2023-10-19T10:23:23;2.17;;;0.60;;
35558;SDS011;21661;50.794;-1.066;2023-10-19T10:25:57;1.73;;;0.43;;
35558;SDS011;21661;50.794;-1.066;2023-10-19T10:28:24;2.00;;;0.50;;
35558;SDS011;21661;50.794;-1.066;2023-10-19T10:36:27;2.10;;;0.63;;
35558;SDS011;21661;50.794;-1.066;2023-10-19T10:39:23;1.52;;;0.50;;
35558;SDS011;21661;50.794;-1.066;2023-10-19T10:41:57;1.95;;;0.50;;
35558;SDS011;21661;50.794;-1.066;2023-10-19T10:52:37;2.13;;;0.60;;
35558;SDS011;21661;50.794;-1.066;2023-10-19T10:57:42;1.50;;;0.50;;
35558;SDS011;21661;50.794;-1.066;2023-10-19T11:00:09;1.98;;;0.50;;
35558;SDS011;21661;50.794;-1.066;2023-10-19T11:02:40;2.15;;;0.60;;
35558;SDS011;21661;50.794;-1.066;2023-10-19T11:05:11;2.10;;;0.50;;
35558;SDS011;21661;50.794;-1.066;2023-10-19T11:07:38;2.30;;;0.60;;
35558;SDS011;21661;50.794;-1.066;2023-10-19T11:10:04;1.75;;;0.50;;
35558;SDS011;21661;50.794;-1.066;2023-10-19T11:12:30;1.70;;;0.60;;
35558;SDS011;21661;50.794;-1.066;2023-10-19T11:14:57;1.33;;;0.50;;
35558;SDS011;21661;50.794;-1.066;2023-10-19T11:17:41;0.95;;;0.40;;
35558;SDS011;21661;50.794;-1.066;2023-10-19T11:20:08;1.20;;;0.40;;
35558;SDS011;21661;50.794;-1.066;2023-10-19T11:22:47;1.10;;;0.35;;
35558;SDS011;21661;50.794;-1.066;2023-10-19T11:25:17;1.00;;;0.32;;
35558;SDS011;21661;50.794;-1.066;2023-10-19T11:27:46;1.35;;;0.30;;
35558;SDS011;21661;50.794;-1.066;2023-10-19T11:30:12;1.42;;;0.55;;
35558;SDS011;21661;50.794;-1.066;2023-10-19T11:32:39;1.40;;;0.40;;
35558;SDS011;21661;50.794;-1.066;2023-10-19T11:35:04;1.52;;;0.40;;
35558;SDS011;21661;50.794;-1.066;2023-10-19T11:37:54;0.75;;;0.20;;
35558;SDS011;21661;50.794;-1.066;2023-10-19T11:40:21;1.48;;;0.40;;
35558;SDS011;21661;50.794;-1.066;2023-10-19T11:42:48;1.20;;;0.30;;
35558;SDS011;21661;50.794;-1.066;2023-10-19T11:45:15;1.10;;;0.43;;
35558;SDS011;21661;50.794;-1.066;2023-10-19T11:47:45;1.73;;;0.50;;
35558;SDS011;21661;50.794;-1.066;2023-10-19T11:50:11;2.10;;;0.50;;
35558;SDS011;21661;50.794;-1.066;2023-10-19T11:52:39;1.95;;;0.47;;
35558;SDS011;21661;50.794;-1.066;2023-10-19T11:55:05;1.45;;;0.40;;
35558;SDS011;21661;50.794;-1.066;2023-10-19T11:57:33;1.48;;;0.47;;
35558;SDS011;21661;50.794;-1.066;2023-10-19T11:59:59;1.70;;;0.50;;
35558;SDS011;21661;50.794;-1.066;2023-10-19T12:02:26;1.45;;;0.40;;
35558;SDS011;21661;50.794;-1.066;2023-10-19T12:04:51;1.52;;;0.50;;
35558;SDS011;21661;50.794;-1.066;2023-10-19T12:07:17;1.95;;;0.43;;
35558;SDS011;21661;50.794;-1.066;2023-10-19T12:09:43;1.95;;;0.45;;
35558;SDS011;21661;50.794;-1.066;2023-10-19T12:12:09;1.70;;;0.50;;
35558;SDS011;21661;50.794;-1.066;2023-10-19T12:14:38;1.17;;;0.40;;
35558;SDS011;21661;50.794;-1.066;2023-10-19T12:17:04;1.80;;;0.47;;
35558;SDS011;21661;50.794;-1.066;2023-10-19T12:19:32;1.05;;;0.40;;
35558;SDS011;21661;50.794;-1.066;2023-10-19T12:21:59;1.38;;;0.40;;
35558;SDS011;21661;50.794;-1.066;2023-10-19T12:24:25;1.13;;;0.40;;
35558;SDS011;21661;50.794;-1.066;2023-10-19T12:26:54;1.25;;;0.40;;
35558;SDS011;21661;50.794;-1.066;2023-10-19T12:29:19;1.48;;;0.30;;
35558;SDS011;21661;50.794;-1.066;2023-10-19T12:31:46;1.42;;;0.50;;
35558;SDS011;21661;50.794;-1.066;2023-10-19T12:34:12;1.25;;;0.40;;
35558;SDS011;21661;50.794;-1.066;2023-10-19T12:36:38;1.65;;;0.52;;
35558;SDS011;21661;50.794;-1.066;2023-10-19T12:39:06;2.28;;;0.65;;
35558;SDS011;21661;50.794;-1.066;2023-10-19T12:41:32;1.67;;;0.40;;
35558;SDS011;21661;50.794;-1.066;2023-10-19T12:43:57;2.00;;;0.40;;
35558;SDS011;21661;50.794;-1.066;2023-10-19T12:46:25;1.73;;;0.50;;
35558;SDS011;21661;50.794;-1.066;2023-10-19T12:48:54;1.58;;;0.50;;
35558;SDS011;21661;50.794;-1.066;2023-10-19T12:51:23;2.25;;;0.60;;
35558;SDS011;21661;50.794;-1.066;2023-10-19T12:53:52;1.98;;;0.70;;
35558;SDS011;21661;50.794;-1.066;2023-10-19T12:56:19;2.47;;;0.50;;
35558;SDS011;21661;50.794;-1.066;2023-10-19T12:58:45;2.13;;;0.60;;
35558;SDS011;21661;50.794;-1.066;2023-10-19T13:01:13;2.63;;;0.43;;
35558;SDS011;21661;50.794;-1.066;2023-10-19T13:03:44;2.15;;;0.45;;
35558;SDS011;21661;50.794;-1.066;2023-10-19T13:06:11;1.90;;;0.60;;
35558;SDS011;21661;50.794;-1.066;2023-10-19T13:08:37;1.95;;;0.60;;
35558;SDS011;21661;50.794;-1.066;2023-10-19T13:11:05;2.35;;;0.50;;
35558;SDS011;21661;50.794;-1.066;2023-10-19T13:13:40;1.52;;;0.50;;
35558;SDS011;21661;50.794;-1.066;2023-10-19T13:16:06;1.38;;;0.40;;
35558;SDS011;21661;50.794;-1.066;2023-10-19T13:18:34;1.55;;;0.30;;
35558;SDS011;21661;50.794;-1.066;2023-10-19T13:21:00;1.58;;;0.40;;
35558;SDS011;21661;50.794;-1.066;2023-10-19T13:23:36;1.25;;;0.40;;
35558;SDS011;21661;50.794;-1.066;2023-10-19T13:26:01;2.15;;;0.50;;
35558;SDS011;21661;50.794;-1.066;2023-10-19T13:28:34;1.40;;;0.45;;
35558;SDS011;21661;50.794;-1.066;2023-10-19T13:31:03;2.40;;;0.60;;
35558;SDS011;21661;50.794;-1.066;2023-10-19T13:33:29;1.67;;;0.43;;
35558;SDS011;21661;50.794;-1.066;2023-10-19T13:35:55;2.10;;;0.57;;
35558;SDS011;21661;50.794;-1.066;2023-10-19T13:38:20;2.35;;;0.40;;
35558;SDS011;21661;50.794;-1.066;2023-10-19T13:40:46;1.75;;;0.50;;
35558;SDS011;21661;50.794;-1.066;2023-10-19T13:43:13;1.67;;;0.47;;
35558;SDS011;21661;50.794;-1.066;2023-10-19T13:45:39;1.65;;;0.50;;
35558;SDS011;21661;50.794;-1.066;2023-10-19T13:48:08;2.63;;;0.60;;
35558;SDS011;21661;50.794;-1.066;2023-10-19T13:50:34;1.50;;;0.45;;
35558;SDS011;21661;50.794;-1.066;2023-10-19T13:53:00;1.75;;;0.45;;
35558;SDS011;21661;50.794;-1.066;2023-10-19T13:55:30;2.17;;;0.50;;
35558;SDS011;21661;50.794;-1.066;2023-10-19T13:57:56;1.55;;;0.50;;
35558;SDS011;21661;50.794;-1.066;2023-10-19T14:00:22;1.85;;;0.45;;
35558;SDS011;21661;50.794;-1.066;2023-10-19T14:02:52;2.53;;;0.60;;
35558;SDS011;21661;50.794;-1.066;2023-10-19T14:05:19;2.03;;;0.50;;
35558;SDS011;21661;50.794;-1.066;2023-10-19T14:07:45;1.67;;;0.60;;
35558;SDS011;21661;50.794;-1.066;2023-10-19T14:10:12;2.47;;;0.60;;
35558;SDS011;21661;50.794;-1.066;2023-10-19T14:12:39;1.40;;;0.40;;
35558;SDS011;21661;50.794;-1.066;2023-10-19T14:15:17;1.35;;;0.40;;
35558;SDS011;21661;50.794;-1.066;2023-10-19T14:17:44;1.83;;;0.45;;
35558;SDS011;21661;50.794;-1.066;2023-10-19T14:20:12;2.65;;;0.60;;
35558;SDS011;21661;50.794;-1.066;2023-10-19T14:23:12;2.00;;;0.70;;
35558;SDS011;21661;50.794;-1.066;2023-10-19T14:25:31;2.33;;;0.50;;
35558;SDS011;21661;50.794;-1.066;2023-10-19T14:28:00;1.48;;;0.50;;
35558;SDS011;21661;50.794;-1.066;2023-10-19T14:30:26;1.27;;;0.40;;
35558;SDS011;21661;50.794;-1.066;2023-10-19T14:32:56;2.28;;;0.50;;
35558;SDS011;21661;50.794;-1.066;2023-10-19T14:35:23;1.80;;;0.40;;
35558;SDS011;21661;50.794;-1.066;2023-10-19T14:37:50;1.35;;;0.40;;
35558;SDS011;21661;50.794;-1.066;2023-10-19T14:40:21;1.85;;;0.47;;
35558;SDS011;21661;50.794;-1.066;2023-10-19T14:42:50;1.70;;;0.40;;
35558;SDS011;21661;50.794;-1.066;2023-10-19T14:45:19;1.73;;;0.60;;
35558;SDS011;21661;50.794;-1.066;2023-10-19T14:47:48;2.30;;;0.50;;
35558;SDS011;21661;50.794;-1.066;2023-10-19T14:52:43;0.88;;;0.30;;
35558;SDS011;21661;50.794;-1.066;2023-10-19T14:55:10;2.28;;;0.50;;
35558;SDS011;21661;50.794;-1.066;2023-10-19T14:57:37;2.17;;;0.65;;
35558;SDS011;21661;50.794;-1.066;2023-10-19T15:00:05;1.88;;;0.43;;
35558;SDS011;21661;50.794;-1.066;2023-10-19T15:02:46;1.48;;;0.50;;
35558;SDS011;21661;50.794;-1.066;2023-10-19T15:05:17;1.83;;;0.60;;
35558;SDS011;21661;50.794;-1.066;2023-10-19T15:07:44;1.23;;;0.40;;
35558;SDS011;21661;50.794;-1.066;2023-10-19T15:10:17;1.67;;;0.50;;
35558;SDS011;21661;50.794;-1.066;2023-10-19T15:12:47;1.52;;;0.40;;
35558;SDS011;21661;50.794;-1.066;2023-10-19T15:15:13;1.67;;;0.63;;
35558;SDS011;21661;50.794;-1.066;2023-10-19T15:17:39;1.75;;;0.50;;
35558;SDS011;21661;50.794;-1.066;2023-10-19T15:20:06;1.60;;;0.40;;
35558;SDS011;21661;50.794;-1.066;2023-10-19T15:22:35;1.88;;;0.60;;
35558;SDS011;21661;50.794;-1.066;2023-10-19T15:25:02;1.23;;;0.45;;